createdAt,value
2023-04-24T10:35:45.265Z,1.25
2023-04-24T10:38:31.683Z,1.10
2023-04-24T10:41:23.871Z,1.25
2023-04-24T10:44:11.272Z,1.25
2023-04-24T10:46:57.237Z,1.42
2023-04-24T10:49:43.683Z,1.30
2023-04-24T10:52:45.882Z,1.25
2023-04-24T10:55:44.396Z,1.25
2023-04-24T10:58:55.051Z,1.20
2023-04-24T11:01:40.297Z,1.30
2023-04-24T11:04:33.455Z,1.67
2023-04-24T11:07:18.522Z,1.27
2023-04-24T11:10:04.564Z,1.10
2023-04-24T11:12:52.006Z,1.10
2023-04-24T11:15:37.880Z,1.42
2023-04-24T11:18:23.875Z,1.10
2023-04-24T11:21:18.540Z,0.90
2023-04-24T11:24:33.032Z,2.15
2023-04-24T11:27:21.248Z,1.83
2023-04-24T11:30:07.532Z,1.20
2023-04-24T11:32:53.260Z,1.00
2023-04-24T11:35:41.709Z,1.08
2023-04-24T11:38:27.000Z,1.67
2023-04-24T11:41:12.609Z,1.30
2023-04-24T11:43:58.403Z,1.20
2023-04-24T11:46:43.917Z,1.02
2023-04-24T11:49:29.362Z,0.80
2023-04-24T11:52:16.914Z,1.20
2023-04-24T11:55:02.615Z,1.00
2023-04-24T11:57:54.760Z,0.88
2023-04-24T12:00:40.579Z,0.98
2023-04-24T12:03:26.256Z,1.10
2023-04-24T12:06:12.801Z,1.13
2023-04-24T12:09:04.714Z,1.35
2023-04-24T12:12:00.811Z,0.98
2023-04-24T12:14:50.945Z,1.00
2023-04-24T12:17:37.723Z,1.00
2023-04-24T12:20:31.874Z,1.40
2023-04-24T12:23:18.597Z,1.23
2023-04-24T12:26:07.192Z,1.40
2023-04-24T12:28:52.309Z,1.83
2023-04-24T12:31:37.814Z,2.17
2023-04-24T12:34:25.779Z,1.40
2023-04-24T12:37:12.364Z,1.20
2023-04-24T12:40:08.265Z,1.80
2023-04-24T12:42:54.395Z,1.70
2023-04-24T12:45:40.863Z,1.00
2023-04-24T12:48:29.789Z,1.05
2023-04-24T12:51:15.035Z,0.70
2023-04-24T12:54:00.163Z,0.90
2023-04-24T12:56:45.439Z,1.05
2023-04-24T12:59:30.875Z,1.13
2023-04-24T13:02:19.605Z,1.45
2023-04-24T13:05:05.255Z,1.50
2023-04-24T13:07:51.035Z,1.10
2023-04-24T13:10:36.403Z,1.33
2023-04-24T13:13:21.615Z,1.30
2023-04-24T13:16:07.053Z,1.25
2023-04-24T13:18:52.179Z,1.20
2023-04-24T13:21:37.243Z,0.82
2023-04-24T13:24:26.950Z,1.08
2023-04-24T13:27:12.252Z,1.20
2023-04-24T13:29:57.309Z,1.10
2023-04-24T13:32:42.952Z,1.30
2023-04-24T13:35:28.254Z,1.30
2023-04-24T13:38:13.399Z,1.00
2023-04-24T13:40:58.863Z,1.10
2023-04-24T13:43:44.609Z,0.90
2023-04-24T13:46:30.713Z,1.00
2023-04-24T13:49:16.733Z,0.95
2023-04-24T13:52:03.150Z,0.80
2023-04-24T13:54:48.994Z,1.20
2023-04-24T13:57:34.309Z,1.77
2023-04-24T14:00:20.129Z,1.00
2023-04-24T14:03:05.298Z,1.17
2023-04-24T14:05:50.911Z,1.17
2023-04-24T14:08:36.051Z,1.63
2023-04-24T14:11:21.628Z,1.73
2023-04-24T14:14:06.782Z,1.00
2023-04-24T14:16:51.949Z,0.95
2023-04-24T14:19:37.202Z,1.02
2023-04-24T14:22:22.692Z,1.23
2023-04-24T14:25:08.656Z,1.48
2023-04-24T14:27:53.851Z,1.40
2023-04-24T14:30:41.532Z,0.93
2023-04-24T14:33:26.978Z,1.10
2023-04-24T14:36:12.037Z,1.77
2023-04-24T14:38:57.304Z,1.33
2023-04-24T14:41:42.524Z,1.23
2023-04-24T14:44:28.173Z,1.48
2023-04-24T14:47:13.527Z,1.45
2023-04-24T14:49:59.355Z,1.20
2023-04-24T14:52:44.730Z,1.33
2023-04-24T14:55:30.092Z,1.08
2023-04-24T14:58:15.442Z,1.65
2023-04-24T15:01:00.941Z,1.02
2023-04-24T15:03:47.031Z,1.25
2023-04-24T15:06:32.840Z,1.42
2023-04-24T15:09:18.074Z,1.50
2023-04-24T15:12:03.613Z,1.35
2023-04-24T15:14:48.945Z,1.30
2023-04-24T15:17:34.607Z,1.30
2023-04-24T15:20:20.149Z,1.30
2023-04-24T15:23:14.149Z,1.95
2023-04-24T15:25:59.545Z,1.50
2023-04-24T15:28:45.111Z,1.20
2023-04-24T15:31:30.337Z,1.50
2023-04-24T15:34:15.668Z,1.58
2023-04-24T15:37:01.511Z,1.20
2023-04-24T15:39:47.176Z,1.92
2023-04-24T15:42:32.564Z,1.50
2023-04-24T15:45:17.837Z,2.03
2023-04-24T15:48:03.082Z,1.60
2023-04-24T15:50:48.709Z,1.95
2023-04-24T15:53:34.231Z,1.98
2023-04-24T15:56:20.097Z,1.50
2023-04-24T15:59:06.527Z,1.63
2023-04-24T16:01:52.139Z,2.33
2023-04-24T16:04:37.854Z,1.90
2023-04-24T16:07:23.515Z,1.30
2023-04-24T16:10:09.484Z,2.22
2023-04-24T16:12:54.984Z,2.00
2023-04-24T16:15:40.258Z,1.77
2023-04-24T16:18:25.382Z,1.60
2023-04-24T16:21:10.795Z,1.30
2023-04-24T16:23:55.979Z,1.20
2023-04-24T16:26:41.328Z,1.10
2023-04-24T16:29:26.669Z,1.40
2023-04-24T16:32:11.886Z,1.45
2023-04-24T16:34:57.142Z,1.27
2023-04-24T16:37:42.556Z,1.42
2023-04-24T16:40:27.648Z,1.35
2023-04-24T16:43:13.023Z,1.50
2023-04-24T16:46:00.576Z,1.50
2023-04-24T16:48:46.265Z,1.27
2023-04-24T16:51:33.023Z,1.10
2023-04-24T16:54:18.206Z,1.30
2023-04-24T16:57:04.668Z,1.40
2023-04-24T16:59:49.860Z,1.52
2023-04-24T17:02:35.006Z,1.20
2023-04-24T17:05:23.353Z,1.73
2023-04-24T17:08:09.077Z,1.15
2023-04-24T17:10:54.419Z,1.52
2023-04-24T17:13:39.907Z,1.65
2023-04-24T17:16:25.837Z,1.33
2023-04-24T17:19:11.545Z,1.27
2023-04-24T17:21:57.975Z,1.40
2023-04-24T17:24:43.431Z,1.27
2023-04-24T17:27:28.789Z,1.15
2023-04-24T17:30:14.753Z,1.50
2023-04-24T17:33:00.030Z,1.38
2023-04-24T17:35:45.458Z,1.30
2023-04-24T17:38:30.879Z,1.30
2023-04-24T17:41:16.760Z,1.50
2023-04-24T17:44:02.303Z,2.47
2023-04-24T17:46:47.784Z,3.83
2023-04-24T17:49:33.013Z,2.15
2023-04-24T17:52:18.234Z,2.42
2023-04-24T17:55:03.847Z,2.40
2023-04-24T17:57:49.389Z,1.88
2023-04-24T18:00:35.418Z,2.10
2023-04-24T18:03:20.839Z,1.95
2023-04-24T18:06:06.253Z,2.45
2023-04-24T18:08:51.562Z,2.05
2023-04-24T18:11:37.697Z,1.73
2023-04-24T18:14:23.349Z,2.17
2023-04-24T18:17:09.708Z,2.38
2023-04-24T18:19:55.292Z,1.30
2023-04-24T18:22:41.537Z,1.95
2023-04-24T18:25:27.320Z,1.20
2023-04-24T18:28:12.713Z,1.30
2023-04-24T18:30:58.482Z,1.63
2023-04-24T18:33:43.788Z,1.08
2023-04-24T18:36:29.027Z,1.35
2023-04-24T18:39:14.412Z,1.20
2023-04-24T18:42:01.748Z,0.95
2023-04-24T18:44:46.905Z,1.17
2023-04-24T18:47:32.286Z,1.30
2023-04-24T18:50:19.207Z,1.23
2023-04-24T18:53:04.456Z,1.40
2023-04-24T18:55:49.955Z,1.00
2023-04-24T18:58:35.268Z,1.20
2023-04-24T19:01:21.983Z,1.50
2023-04-24T19:04:07.318Z,1.13
2023-04-24T19:06:52.554Z,1.48
2023-04-24T19:09:37.825Z,1.17
2023-04-24T19:12:23.314Z,0.90
2023-04-24T19:15:12.737Z,1.15
2023-04-24T19:17:57.726Z,1.50
2023-04-24T19:20:43.977Z,1.35
2023-04-24T19:23:29.602Z,0.80
2023-04-24T19:26:14.615Z,1.00
2023-04-24T19:29:00.041Z,1.27
2023-04-24T19:31:45.503Z,1.52
2023-04-24T19:34:31.910Z,1.30
2023-04-24T19:37:17.344Z,1.10
2023-04-24T19:40:03.530Z,1.15
2023-04-24T19:42:49.558Z,1.25
2023-04-24T19:45:34.604Z,1.67
2023-04-24T19:48:19.970Z,1.35
2023-04-24T19:51:05.465Z,1.50
2023-04-24T19:53:53.963Z,1.50
2023-04-24T19:56:39.230Z,1.63
2023-04-24T19:59:24.742Z,1.50
2023-04-24T20:02:11.539Z,1.90
2023-04-24T20:04:57.069Z,2.00
2023-04-24T20:07:42.350Z,2.15
2023-04-24T20:10:27.723Z,2.10
2023-04-24T20:13:13.027Z,2.05
2023-04-24T20:15:58.312Z,2.35
2023-04-24T20:18:44.591Z,2.25
2023-04-24T20:21:29.661Z,2.58
2023-04-24T20:24:16.126Z,2.50
2023-04-24T20:27:04.447Z,2.05
2023-04-24T20:29:49.819Z,2.45
2023-04-24T20:32:35.524Z,2.20
2023-04-24T20:35:20.868Z,2.50
2023-04-24T20:38:06.671Z,2.13
2023-04-24T20:43:40.330Z,2.75
2023-04-24T20:46:25.602Z,2.30
2023-04-24T20:49:11.017Z,2.20
2023-04-24T20:51:56.378Z,2.28
2023-04-24T20:54:41.857Z,2.30
2023-04-24T20:57:27.417Z,2.85
2023-04-24T21:00:13.610Z,3.28
2023-04-24T21:02:58.897Z,2.50
2023-04-24T21:05:44.310Z,2.15
2023-04-24T21:08:29.764Z,2.10
2023-04-24T21:11:15.205Z,2.70
2023-04-24T21:14:00.704Z,3.40
2023-04-24T21:16:45.998Z,2.83
2023-04-24T21:19:31.303Z,3.38
2023-04-24T21:22:16.606Z,3.13
2023-04-24T21:25:05.555Z,3.67
2023-04-24T21:27:50.962Z,3.20
2023-04-24T21:30:37.437Z,3.40
2023-04-24T21:33:22.867Z,3.08
2023-04-24T21:36:08.080Z,3.47
2023-04-24T21:38:53.219Z,3.70
2023-04-24T21:41:38.788Z,3.08
2023-04-24T21:44:24.667Z,3.47
2023-04-24T21:47:10.161Z,4.38
2023-04-24T21:49:55.508Z,3.80
2023-04-24T21:52:40.783Z,3.72
2023-04-24T21:55:26.964Z,3.45
2023-04-24T21:58:12.843Z,4.00
2023-04-24T22:00:58.142Z,4.10
2023-04-24T22:03:43.334Z,3.45
2023-04-24T22:06:28.554Z,3.80
2023-04-24T22:09:13.655Z,4.30
2023-04-24T22:11:59.196Z,4.38
2023-04-24T22:14:44.248Z,4.57
2023-04-24T22:17:29.630Z,3.70
2023-04-24T22:20:17.077Z,3.90
2023-04-24T22:23:02.190Z,3.58
2023-04-24T22:25:47.609Z,4.15
2023-04-24T22:28:33.007Z,3.92
2023-04-24T22:31:18.542Z,3.78
2023-04-24T22:34:03.818Z,3.83
2023-04-24T22:36:48.912Z,4.35
2023-04-24T22:39:34.157Z,4.22
2023-04-24T22:42:19.560Z,4.15
2023-04-24T22:45:05.798Z,4.07
2023-04-24T22:47:51.529Z,4.30
2023-04-24T22:50:37.036Z,3.75
2023-04-24T22:53:23.077Z,4.03
2023-04-24T22:56:08.436Z,4.95
2023-04-24T22:58:53.917Z,4.10
2023-04-24T23:01:38.895Z,5.15
2023-04-24T23:04:24.697Z,4.32
2023-04-24T23:07:10.345Z,3.90
2023-04-24T23:09:55.781Z,3.97
2023-04-24T23:12:41.050Z,3.58
2023-04-24T23:15:26.056Z,3.22
2023-04-24T23:18:12.350Z,3.97
2023-04-24T23:20:58.282Z,3.70
2023-04-24T23:23:43.498Z,3.65
2023-04-24T23:26:28.816Z,3.85
2023-04-24T23:29:13.905Z,3.45
2023-04-24T23:32:01.149Z,2.97
2023-04-24T23:34:46.170Z,3.85
2023-04-24T23:37:31.533Z,3.55
2023-04-24T23:40:17.063Z,3.45
2023-04-24T23:43:07.450Z,3.55
2023-04-24T23:45:53.345Z,3.63
2023-04-24T23:48:38.440Z,3.13
2023-04-24T23:51:23.863Z,3.60
2023-04-24T23:54:09.378Z,3.17
2023-04-24T23:56:54.693Z,3.03
2023-04-24T23:59:40.007Z,3.50
